sensor_id;sensor_type;location;lat;lon;timestamp;temperature;humidity
16767;DHT22;8501;49.926;8.404;2023-10-19T00:02:22;12.10;99.90
16767;DHT22;8501;49.926;8.404;2023-10-19T00:04:48;12.00;99.90
16767;DHT22;8501;49.926;8.404;2023-10-19T00:07:14;12.00;99.90
16767;DHT22;8501;49.926;8.404;2023-10-19T00:09:41;12.00;99.90
16767;DHT22;8501;49.926;8.404;2023-10-19T00:12:10;12.00;99.90
16767;DHT22;8501;49.926;8.404;2023-10-19T00:14:36;12.00;99.90
16767;DHT22;8501;49.926;8.404;2023-10-19T00:17:01;12.00;99.90
16767;DHT22;8501;49.926;8.404;2023-10-19T00:19:32;12.00;99.90
16767;DHT22;8501;49.926;8.404;2023-10-19T00:22:05;11.90;99.90
16767;DHT22;8501;49.926;8.404;2023-10-19T00:24:46;11.90;99.90
16767;DHT22;8501;49.926;8.404;2023-10-19T00:27:11;11.90;99.90
16767;DHT22;8501;49.926;8.404;2023-10-19T00:29:44;12.00;99.90
16767;DHT22;8501;49.926;8.404;2023-10-19T00:32:20;12.00;99.90
16767;DHT22;8501;49.926;8.404;2023-10-19T00:34:50;12.00;99.90
16767;DHT22;8501;49.926;8.404;2023-10-19T00:37:19;12.00;99.90
16767;DHT22;8501;49.926;8.404;2023-10-19T00:39:51;11.90;99.90
16767;DHT22;8501;49.926;8.404;2023-10-19T00:42:20;11.90;99.90
16767;DHT22;8501;49.926;8.404;2023-10-19T00:44:55;12.00;99.90
16767;DHT22;8501;49.926;8.404;2023-10-19T00:47:29;12.00;99.90
16767;DHT22;8501;49.926;8.404;2023-10-19T00:50:06;12.00;99.90
16767;DHT22;8501;49.926;8.404;2023-10-19T00:52:37;12.00;99.90
16767;DHT22;8501;49.926;8.404;2023-10-19T00:55:09;12.00;99.90
16767;DHT22;8501;49.926;8.404;2023-10-19T00:57:38;12.00;99.90
16767;DHT22;8501;49.926;8.404;2023-10-19T01:00:07;12.00;99.90
16767;DHT22;8501;49.926;8.404;2023-10-19T01:02:47;12.00;99.90
16767;DHT22;8501;49.926;8.404;2023-10-19T01:05:16;12.00;99.90
16767;DHT22;8501;49.926;8.404;2023-10-19T01:07:47;11.90;99.90
16767;DHT22;8501;49.926;8.404;2023-10-19T01:10:18;11.90;99.90
16767;DHT22;8501;49.926;8.404;2023-10-19T01:12:46;11.90;99.90
16767;DHT22;8501;49.926;8.404;2023-10-19T01:15:14;11.90;99.90
16767;DHT22;8501;49.926;8.404;2023-10-19T01:17:47;11.90;99.90
16767;DHT22;8501;49.926;8.404;2023-10-19T01:20:27;11.90;99.90
16767;DHT22;8501;49.926;8.404;2023-10-19T01:23:04;12.00;99.90
16767;DHT22;8501;49.926;8.404;2023-10-19T01:28:29;12.00;99.90
16767;DHT22;8501;49.926;8.404;2023-10-19T01:31:04;12.10;99.90
16767;DHT22;8501;49.926;8.404;2023-10-19T01:33:31;12.10;99.90
16767;DHT22;8501;49.926;8.404;2023-10-19T01:35:57;12.10;99.90
16767;DHT22;8501;49.926;8.404;2023-10-19T01:38:42;12.10;99.90
16767;DHT22;8501;49.926;8.404;2023-10-19T01:41:08;12.10;99.90
16767;DHT22;8501;49.926;8.404;2023-10-19T01:43:37;12.10;99.90
16767;DHT22;8501;49.926;8.404;2023-10-19T01:46:05;12.10;99.90
16767;DHT22;8501;49.926;8.404;2023-10-19T01:48:37;12.10;99.90
16767;DHT22;8501;49.926;8.404;2023-10-19T01:51:05;12.10;99.90
16767;DHT22;8501;49.926;8.404;2023-10-19T01:53:31;12.10;99.90
16767;DHT22;8501;49.926;8.404;2023-10-19T01:55:57;12.10;99.90
16767;DHT22;8501;49.926;8.404;2023-10-19T01:58:27;12.10;99.90
16767;DHT22;8501;49.926;8.404;2023-10-19T02:00:55;12.20;99.90
16767;DHT22;8501;49.926;8.404;2023-10-19T02:03:21;12.20;99.90
16767;DHT22;8501;49.926;8.404;2023-10-19T02:05:58;12.20;99.90
16767;DHT22;8501;49.926;8.404;2023-10-19T02:08:25;12.20;99.90
16767;DHT22;8501;49.926;8.404;2023-10-19T02:10:52;12.20;99.90
16767;DHT22;8501;49.926;8.404;2023-10-19T02:13:19;12.20;99.90
16767;DHT22;8501;49.926;8.404;2023-10-19T02:15:45;12.20;99.90
16767;DHT22;8501;49.926;8.404;2023-10-19T02:18:10;12.20;99.90
16767;DHT22;8501;49.926;8.404;2023-10-19T02:20:36;12.10;99.90
16767;DHT22;8501;49.926;8.404;2023-10-19T02:23:07;12.20;99.90
16767;DHT22;8501;49.926;8.404;2023-10-19T02:25:33;12.20;99.90
16767;DHT22;8501;49.926;8.404;2023-10-19T02:28:05;12.20;99.90
16767;DHT22;8501;49.926;8.404;2023-10-19T02:30:33;12.20;99.90
16767;DHT22;8501;49.926;8.404;2023-10-19T02:32:59;12.20;99.90
16767;DHT22;8501;49.926;8.404;2023-10-19T02:35:26;12.20;99.90
16767;DHT22;8501;49.926;8.404;2023-10-19T02:37:53;12.20;99.90
16767;DHT22;8501;49.926;8.404;2023-10-19T02:40:18;12.20;99.90
16767;DHT22;8501;49.926;8.404;2023-10-19T02:42:49;12.20;99.90
16767;DHT22;8501;49.926;8.404;2023-10-19T02:45:19;12.20;99.90
16767;DHT22;8501;49.926;8.404;2023-10-19T02:47:45;12.30;99.90
16767;DHT22;8501;49.926;8.404;2023-10-19T02:50:12;12.20;99.90
16767;DHT22;8501;49.926;8.404;2023-10-19T02:52:47;12.30;99.90
16767;DHT22;8501;49.926;8.404;2023-10-19T02:55:13;12.40;99.90
16767;DHT22;8501;49.926;8.404;2023-10-19T02:57:41;12.40;99.90
16767;DHT22;8501;49.926;8.404;2023-10-19T03:00:12;12.40;99.90
16767;DHT22;8501;49.926;8.404;2023-10-19T03:02:39;12.40;99.90
16767;DHT22;8501;49.926;8.404;2023-10-19T03:05:05;12.40;99.90
16767;DHT22;8501;49.926;8.404;2023-10-19T03:07:43;12.40;99.90
16767;DHT22;8501;49.926;8.404;2023-10-19T03:10:09;12.40;99.90
16767;DHT22;8501;49.926;8.404;2023-10-19T03:12:50;12.40;99.90
16767;DHT22;8501;49.926;8.404;2023-10-19T03:15:17;12.50;99.90
16767;DHT22;8501;49.926;8.404;2023-10-19T03:17:46;12.50;99.90
16767;DHT22;8501;49.926;8.404;2023-10-19T03:20:11;12.50;99.90
16767;DHT22;8501;49.926;8.404;2023-10-19T03:22:37;12.50;99.90
16767;DHT22;8501;49.926;8.404;2023-10-19T03:25:07;12.50;99.90
16767;DHT22;8501;49.926;8.404;2023-10-19T03:27:59;12.50;99.90
16767;DHT22;8501;49.926;8.404;2023-10-19T03:30:32;12.50;99.90
16767;DHT22;8501;49.926;8.404;2023-10-19T03:33:04;12.50;99.90
16767;DHT22;8501;49.926;8.404;2023-10-19T03:35:30;12.50;99.90
16767;DHT22;8501;49.926;8.404;2023-10-19T03:37:55;12.60;99.90
16767;DHT22;8501;49.926;8.404;2023-10-19T03:40:27;12.50;99.90
16767;DHT22;8501;49.926;8.404;2023-10-19T03:42:55;12.50;99.90
16767;DHT22;8501;49.926;8.404;2023-10-19T03:45:20;12.50;99.90
16767;DHT22;8501;49.926;8.404;2023-10-19T03:47:50;12.60;99.90
16767;DHT22;8501;49.926;8.404;2023-10-19T03:50:15;12.60;99.90
16767;DHT22;8501;49.926;8.404;2023-10-19T03:52:46;12.60;99.90
16767;DHT22;8501;49.926;8.404;2023-10-19T03:55:11;12.60;99.90
16767;DHT22;8501;49.926;8.404;2023-10-19T03:57:40;12.60;99.90
16767;DHT22;8501;49.926;8.404;2023-10-19T04:00:07;12.50;99.90
16767;DHT22;8501;49.926;8.404;2023-10-19T04:02:40;12.50;99.90
16767;DHT22;8501;49.926;8.404;2023-10-19T04:05:08;12.50;99.90
16767;DHT22;8501;49.926;8.404;2023-10-19T04:07:35;12.50;99.90
16767;DHT22;8501;49.926;8.404;2023-10-19T04:10:01;12.50;99.90
16767;DHT22;8501;49.926;8.404;2023-10-19T04:12:33;12.50;99.90
16767;DHT22;8501;49.926;8.404;2023-10-19T04:15:05;12.60;99.90
16767;DHT22;8501;49.926;8.404;2023-10-19T04:17:43;12.50;99.90
16767;DHT22;8501;49.926;8.404;2023-10-19T04:20:11;12.50;99.90
16767;DHT22;8501;49.926;8.404;2023-10-19T04:22:46;12.50;99.90
16767;DHT22;8501;49.926;8.404;2023-10-19T04:25:13;12.60;99.90
16767;DHT22;8501;49.926;8.404;2023-10-19T04:27:44;12.60;99.90
16767;DHT22;8501;49.926;8.404;2023-10-19T04:30:12;12.60;99.90
16767;DHT22;8501;49.926;8.404;2023-10-19T04:32:45;12.50;99.90
16767;DHT22;8501;49.926;8.404;2023-10-19T04:35:11;12.60;99.90
16767;DHT22;8501;49.926;8.404;2023-10-19T04:37:39;12.50;99.90
16767;DHT22;8501;49.926;8.404;2023-10-19T04:40:11;12.50;99.90
16767;DHT22;8501;49.926;8.404;2023-10-19T04:42:37;12.60;99.90
16767;DHT22;8501;49.926;8.404;2023-10-19T04:45:03;12.60;99.90
16767;DHT22;8501;49.926;8.404;2023-10-19T04:47:31;12.60;99.90
16767;DHT22;8501;49.926;8.404;2023-10-19T04:49:56;12.60;99.90
16767;DHT22;8501;49.926;8.404;2023-10-19T04:52:22;12.60;99.90
16767;DHT22;8501;49.926;8.404;2023-10-19T04:54:47;12.60;99.90
16767;DHT22;8501;49.926;8.404;2023-10-19T04:57:13;12.60;99.90
16767;DHT22;8501;49.926;8.404;2023-10-19T04:59:38;12.60;99.90
16767;DHT22;8501;49.926;8.404;2023-10-19T05:02:04;12.60;99.90
16767;DHT22;8501;49.926;8.404;2023-10-19T05:04:31;12.60;99.90
16767;DHT22;8501;49.926;8.404;2023-10-19T05:06:56;12.60;99.90
16767;DHT22;8501;49.926;8.404;2023-10-19T05:09:22;12.60;99.90
16767;DHT22;8501;49.926;8.404;2023-10-19T05:11:47;12.60;99.90
16767;DHT22;8501;49.926;8.404;2023-10-19T05:14:13;12.60;99.90
16767;DHT22;8501;49.926;8.404;2023-10-19T05:16:39;12.60;99.90
16767;DHT22;8501;49.926;8.404;2023-10-19T05:19:05;12.60;99.90
16767;DHT22;8501;49.926;8.404;2023-10-19T05:21:31;12.60;99.90
16767;DHT22;8501;49.926;8.404;2023-10-19T05:23:56;12.60;99.90
16767;DHT22;8501;49.926;8.404;2023-10-19T05:26:22;12.60;99.90
16767;DHT22;8501;49.926;8.404;2023-10-19T05:28:48;12.60;99.90
16767;DHT22;8501;49.926;8.404;2023-10-19T05:31:14;12.60;99.90
16767;DHT22;8501;49.926;8.404;2023-10-19T05:33:40;12.70;99.90
16767;DHT22;8501;49.926;8.404;2023-10-19T05:36:06;12.70;99.90
16767;DHT22;8501;49.926;8.404;2023-10-19T05:38:32;12.70;99.90
16767;DHT22;8501;49.926;8.404;2023-10-19T05:40:57;12.60;99.90
16767;DHT22;8501;49.926;8.404;2023-10-19T05:43:25;12.60;99.90
16767;DHT22;8501;49.926;8.404;2023-10-19T05:45:50;12.60;99.90
16767;DHT22;8501;49.926;8.404;2023-10-19T05:48:16;12.70;99.90
16767;DHT22;8501;49.926;8.404;2023-10-19T05:50:42;12.70;99.90
16767;DHT22;8501;49.926;8.404;2023-10-19T05:53:08;12.70;99.90
16767;DHT22;8501;49.926;8.404;2023-10-19T05:55:34;12.70;99.90
16767;DHT22;8501;49.926;8.404;2023-10-19T05:58:01;12.70;99.90
16767;DHT22;8501;49.926;8.404;2023-10-19T06:00:30;12.70;99.90
16767;DHT22;8501;49.926;8.404;2023-10-19T06:02:56;12.70;99.90
16767;DHT22;8501;49.926;8.404;2023-10-19T06:05:23;12.70;99.90
16767;DHT22;8501;49.926;8.404;2023-10-19T06:07:49;12.60;99.90
16767;DHT22;8501;49.926;8.404;2023-10-19T06:10:18;12.70;99.90
16767;DHT22;8501;49.926;8.404;2023-10-19T06:12:45;12.70;99.90
16767;DHT22;8501;49.926;8.404;2023-10-19T06:15:12;12.70;99.90
16767;DHT22;8501;49.926;8.404;2023-10-19T06:17:39;12.70;99.90
16767;DHT22;8501;49.926;8.404;2023-10-19T06:20:06;12.70;99.90
16767;DHT22;8501;49.926;8.404;2023-10-19T06:22:36;12.70;99.90
16767;DHT22;8501;49.926;8.404;2023-10-19T06:25:02;12.70;99.90
16767;DHT22;8501;49.926;8.404;2023-10-19T06:27:30;12.70;99.90
16767;DHT22;8501;49.926;8.404;2023-10-19T06:29:56;12.70;99.90
16767;DHT22;8501;49.926;8.404;2023-10-19T06:32:22;12.70;99.90
16767;DHT22;8501;49.926;8.404;2023-10-19T06:34:47;12.70;99.90
16767;DHT22;8501;49.926;8.404;2023-10-19T06:37:13;12.80;99.90
16767;DHT22;8501;49.926;8.404;2023-10-19T06:39:39;12.70;99.90
16767;DHT22;8501;49.926;8.404;2023-10-19T06:42:08;12.80;99.90
16767;DHT22;8501;49.926;8.404;2023-10-19T06:44:40;12.80;99.90
16767;DHT22;8501;49.926;8.404;2023-10-19T06:47:07;12.80;99.90
16767;DHT22;8501;49.926;8.404;2023-10-19T06:49:32;12.80;99.90
16767;DHT22;8501;49.926;8.404;2023-10-19T06:51:59;12.80;99.90
16767;DHT22;8501;49.926;8.404;2023-10-19T06:54:25;12.80;99.90
16767;DHT22;8501;49.926;8.404;2023-10-19T06:56:53;12.90;99.90
16767;DHT22;8501;49.926;8.404;2023-10-19T06:59:18;12.90;99.90
16767;DHT22;8501;49.926;8.404;2023-10-19T07:01:44;12.80;99.90
16767;DHT22;8501;49.926;8.404;2023-10-19T07:04:10;12.80;99.90
16767;DHT22;8501;49.926;8.404;2023-10-19T07:06:35;12.90;99.90
16767;DHT22;8501;49.926;8.404;2023-10-19T07:09:01;12.90;99.90
16767;DHT22;8501;49.926;8.404;2023-10-19T07:11:29;12.90;99.90
16767;DHT22;8501;49.926;8.404;2023-10-19T07:13:54;12.90;99.90
16767;DHT22;8501;49.926;8.404;2023-10-19T07:16:20;12.90;99.90
16767;DHT22;8501;49.926;8.404;2023-10-19T07:18:46;12.90;99.90
16767;DHT22;8501;49.926;8.404;2023-10-19T07:21:12;12.90;99.90
16767;DHT22;8501;49.926;8.404;2023-10-19T07:23:38;12.90;99.90
16767;DHT22;8501;49.926;8.404;2023-10-19T07:26:03;12.90;99.90
16767;DHT22;8501;49.926;8.404;2023-10-19T07:28:29;12.90;99.90
16767;DHT22;8501;49.926;8.404;2023-10-19T07:30:57;12.90;99.90
16767;DHT22;8501;49.926;8.404;2023-10-19T07:33:23;13.00;99.90
16767;DHT22;8501;49.926;8.404;2023-10-19T07:35:50;13.00;99.90
16767;DHT22;8501;49.926;8.404;2023-10-19T07:38:26;13.00;99.90
16767;DHT22;8501;49.926;8.404;2023-10-19T07:40:53;13.00;99.90
16767;DHT22;8501;49.926;8.404;2023-10-19T07:43:19;13.00;99.90
16767;DHT22;8501;49.926;8.404;2023-10-19T07:45:46;13.10;99.90
16767;DHT22;8501;49.926;8.404;2023-10-19T07:48:13;13.10;99.90
16767;DHT22;8501;49.926;8.404;2023-10-19T07:50:39;13.10;99.90
16767;DHT22;8501;49.926;8.404;2023-10-19T07:53:06;13.10;99.90
16767;DHT22;8501;49.926;8.404;2023-10-19T07:55:31;13.20;99.90
16767;DHT22;8501;49.926;8.404;2023-10-19T07:57:58;13.20;99.90
16767;DHT22;8501;49.926;8.404;2023-10-19T08:00:28;13.20;99.90
16767;DHT22;8501;49.926;8.404;2023-10-19T08:02:59;13.20;99.90
16767;DHT22;8501;49.926;8.404;2023-10-19T08:05:24;13.20;99.90
16767;DHT22;8501;49.926;8.404;2023-10-19T08:07:50;13.20;99.90
16767;DHT22;8501;49.926;8.404;2023-10-19T08:10:17;13.20;99.90
16767;DHT22;8501;49.926;8.404;2023-10-19T08:12:44;13.10;99.90
16767;DHT22;8501;49.926;8.404;2023-10-19T08:15:14;13.20;99.90
16767;DHT22;8501;49.926;8.404;2023-10-19T08:17:48;13.30;99.90
16767;DHT22;8501;49.926;8.404;2023-10-19T08:20:15;13.30;99.90
16767;DHT22;8501;49.926;8.404;2023-10-19T08:22:45;13.30;99.90
16767;DHT22;8501;49.926;8.404;2023-10-19T08:25:13;13.30;99.90
16767;DHT22;8501;49.926;8.404;2023-10-19T08:27:45;13.30;99.90
16767;DHT22;8501;49.926;8.404;2023-10-19T08:30:12;13.40;99.90
16767;DHT22;8501;49.926;8.404;2023-10-19T08:32:39;13.30;99.90
16767;DHT22;8501;49.926;8.404;2023-10-19T08:35:05;13.40;99.90
16767;DHT22;8501;49.926;8.404;2023-10-19T08:37:31;13.40;99.90
16767;DHT22;8501;49.926;8.404;2023-10-19T08:39:57;13.30;99.90
16767;DHT22;8501;49.926;8.404;2023-10-19T08:42:23;13.40;99.90
16767;DHT22;8501;49.926;8.404;2023-10-19T08:44:49;13.40;99.90
16767;DHT22;8501;49.926;8.404;2023-10-19T08:47:15;13.40;99.90
16767;DHT22;8501;49.926;8.404;2023-10-19T08:49:41;13.40;99.90
16767;DHT22;8501;49.926;8.404;2023-10-19T08:52:07;13.40;99.90
16767;DHT22;8501;49.926;8.404;2023-10-19T08:54:33;13.40;99.90
16767;DHT22;8501;49.926;8.404;2023-10-19T08:57:00;13.50;99.90
16767;DHT22;8501;49.926;8.404;2023-10-19T08:59:26;13.50;99.90
16767;DHT22;8501;49.926;8.404;2023-10-19T09:02:02;13.50;99.90
16767;DHT22;8501;49.926;8.404;2023-10-19T09:04:29;13.50;99.90
16767;DHT22;8501;49.926;8.404;2023-10-19T09:06:55;13.50;99.90
16767;DHT22;8501;49.926;8.404;2023-10-19T09:09:21;13.50;99.90
16767;DHT22;8501;49.926;8.404;2023-10-19T09:11:47;13.60;99.90
16767;DHT22;8501;49.926;8.404;2023-10-19T09:14:14;13.60;99.90
16767;DHT22;8501;49.926;8.404;2023-10-19T09:16:56;13.60;99.90
16767;DHT22;8501;49.926;8.404;2023-10-19T09:19:43;13.70;99.90
16767;DHT22;8501;49.926;8.404;2023-10-19T09:22:09;13.70;99.90
16767;DHT22;8501;49.926;8.404;2023-10-19T09:24:49;13.70;99.90
16767;DHT22;8501;49.926;8.404;2023-10-19T09:27:21;13.80;99.90
16767;DHT22;8501;49.926;8.404;2023-10-19T09:29:50;13.80;99.90
16767;DHT22;8501;49.926;8.404;2023-10-19T09:32:18;13.90;99.90
16767;DHT22;8501;49.926;8.404;2023-10-19T09:34:45;13.90;99.90
16767;DHT22;8501;49.926;8.404;2023-10-19T09:37:12;13.90;99.90
16767;DHT22;8501;49.926;8.404;2023-10-19T09:39:38;13.90;99.90
16767;DHT22;8501;49.926;8.404;2023-10-19T09:42:09;14.10;99.90
16767;DHT22;8501;49.926;8.404;2023-10-19T09:44:48;14.20;99.90
16767;DHT22;8501;49.926;8.404;2023-10-19T09:47:25;14.30;99.90
16767;DHT22;8501;49.926;8.404;2023-10-19T09:49:52;14.40;99.90
16767;DHT22;8501;49.926;8.404;2023-10-19T09:52:17;14.40;99.90
16767;DHT22;8501;49.926;8.404;2023-10-19T09:57:44;14.60;99.90
16767;DHT22;8501;49.926;8.404;2023-10-19T10:00:12;14.70;99.90
16767;DHT22;8501;49.926;8.404;2023-10-19T10:02:42;14.60;99.90
16767;DHT22;8501;49.926;8.404;2023-10-19T10:10:51;14.80;99.90
16767;DHT22;8501;49.926;8.404;2023-10-19T10:15:58;14.90;99.90
16767;DHT22;8501;49.926;8.404;2023-10-19T10:18:27;14.90;99.90
16767;DHT22;8501;49.926;8.404;2023-10-19T10:21:15;15.00;99.90
16767;DHT22;8501;49.926;8.404;2023-10-19T10:23:56;15.10;99.90
16767;DHT22;8501;49.926;8.404;2023-10-19T10:26:58;15.20;99.90
16767;DHT22;8501;49.926;8.404;2023-10-19T10:29:24;15.20;99.90
16767;DHT22;8501;49.926;8.404;2023-10-19T10:31:50;15.30;99.90
16767;DHT22;8501;49.926;8.404;2023-10-19T10:37:09;15.40;99.90
16767;DHT22;8501;49.926;8.404;2023-10-19T10:39:37;15.40;99.90
16767;DHT22;8501;49.926;8.404;2023-10-19T10:42:10;15.50;99.90
16767;DHT22;8501;49.926;8.404;2023-10-19T10:44:36;15.60;99.90
16767;DHT22;8501;49.926;8.404;2023-10-19T10:47:12;15.70;99.90
16767;DHT22;8501;49.926;8.404;2023-10-19T10:49:54;15.70;99.90
16767;DHT22;8501;49.926;8.404;2023-10-19T10:52:35;15.70;99.90
16767;DHT22;8501;49.926;8.404;2023-10-19T10:55:10;15.70;99.90
16767;DHT22;8501;49.926;8.404;2023-10-19T10:57:40;15.70;99.90
16767;DHT22;8501;49.926;8.404;2023-10-19T11:00:07;15.70;99.90
16767;DHT22;8501;49.926;8.404;2023-10-19T11:02:36;15.70;99.90
16767;DHT22;8501;49.926;8.404;2023-10-19T11:05:02;15.70;99.90
16767;DHT22;8501;49.926;8.404;2023-10-19T11:07:28;15.70;99.90
16767;DHT22;8501;49.926;8.404;2023-10-19T11:09:55;15.70;99.90
16767;DHT22;8501;49.926;8.404;2023-10-19T11:12:20;15.70;99.90
16767;DHT22;8501;49.926;8.404;2023-10-19T11:14:57;15.70;99.90
16767;DHT22;8501;49.926;8.404;2023-10-19T11:17:28;15.70;99.90
16767;DHT22;8501;49.926;8.404;2023-10-19T11:19:57;15.70;99.90
16767;DHT22;8501;49.926;8.404;2023-10-19T11:22:24;15.70;99.90
16767;DHT22;8501;49.926;8.404;2023-10-19T11:24:53;15.80;99.90
16767;DHT22;8501;49.926;8.404;2023-10-19T11:27:26;15.80;99.90
16767;DHT22;8501;49.926;8.404;2023-10-19T11:29:59;15.80;99.90
16767;DHT22;8501;49.926;8.404;2023-10-19T11:32:36;15.70;99.90
16767;DHT22;8501;49.926;8.404;2023-10-19T11:35:06;15.70;99.90
16767;DHT22;8501;49.926;8.404;2023-10-19T11:37:47;15.80;99.90
16767;DHT22;8501;49.926;8.404;2023-10-19T11:40:14;15.80;99.90
16767;DHT22;8501;49.926;8.404;2023-10-19T11:42:39;15.80;99.90
16767;DHT22;8501;49.926;8.404;2023-10-19T11:45:05;15.80;99.90
16767;DHT22;8501;49.926;8.404;2023-10-19T11:47:31;15.80;99.90
16767;DHT22;8501;49.926;8.404;2023-10-19T11:49:57;15.90;99.90
16767;DHT22;8501;49.926;8.404;2023-10-19T11:52:22;15.80;99.90
16767;DHT22;8501;49.926;8.404;2023-10-19T11:54:48;15.90;99.90
16767;DHT22;8501;49.926;8.404;2023-10-19T11:57:14;15.90;99.90
16767;DHT22;8501;49.926;8.404;2023-10-19T11:59:39;15.90;99.90
16767;DHT22;8501;49.926;8.404;2023-10-19T12:02:09;15.90;99.90
16767;DHT22;8501;49.926;8.404;2023-10-19T12:04:35;16.00;99.90
16767;DHT22;8501;49.926;8.404;2023-10-19T12:07:02;16.00;99.90
16767;DHT22;8501;49.926;8.404;2023-10-19T12:09:28;15.90;99.90
16767;DHT22;8501;49.926;8.404;2023-10-19T12:11:55;16.00;99.90
16767;DHT22;8501;49.926;8.404;2023-10-19T12:14:21;16.00;99.90
16767;DHT22;8501;49.926;8.404;2023-10-19T12:16:48;16.00;99.90
16767;DHT22;8501;49.926;8.404;2023-10-19T12:19:14;16.00;99.90
16767;DHT22;8501;49.926;8.404;2023-10-19T12:21:40;16.00;99.90
16767;DHT22;8501;49.926;8.404;2023-10-19T12:24:10;16.00;99.90
16767;DHT22;8501;49.926;8.404;2023-10-19T12:26:35;16.00;99.90
16767;DHT22;8501;49.926;8.404;2023-10-19T12:29:01;16.00;99.90
16767;DHT22;8501;49.926;8.404;2023-10-19T12:31:29;16.00;99.90
16767;DHT22;8501;49.926;8.404;2023-10-19T12:33:55;16.00;99.90
16767;DHT22;8501;49.926;8.404;2023-10-19T12:36:21;16.00;99.90
16767;DHT22;8501;49.926;8.404;2023-10-19T12:38:53;16.00;99.90
16767;DHT22;8501;49.926;8.404;2023-10-19T12:41:20;16.00;99.90
16767;DHT22;8501;49.926;8.404;2023-10-19T12:43:46;16.00;99.90
16767;DHT22;8501;49.926;8.404;2023-10-19T12:46:12;16.00;99.90
16767;DHT22;8501;49.926;8.404;2023-10-19T12:48:39;15.90;99.90
16767;DHT22;8501;49.926;8.404;2023-10-19T12:51:05;15.90;99.90
16767;DHT22;8501;49.926;8.404;2023-10-19T12:53:37;15.90;99.90
16767;DHT22;8501;49.926;8.404;2023-10-19T12:56:04;15.90;99.90
16767;DHT22;8501;49.926;8.404;2023-10-19T12:58:30;15.90;99.90
16767;DHT22;8501;49.926;8.404;2023-10-19T13:00:57;15.90;99.90
16767;DHT22;8501;49.926;8.404;2023-10-19T13:03:24;15.90;99.90
16767;DHT22;8501;49.926;8.404;2023-10-19T13:05:52;15.90;99.90
16767;DHT22;8501;49.926;8.404;2023-10-19T13:08:19;16.00;99.90
16767;DHT22;8501;49.926;8.404;2023-10-19T13:10:47;15.90;99.90
16767;DHT22;8501;49.926;8.404;2023-10-19T13:13:14;16.00;99.90
16767;DHT22;8501;49.926;8.404;2023-10-19T13:15:45;16.00;99.90
16767;DHT22;8501;49.926;8.404;2023-10-19T13:18:12;16.00;99.90
16767;DHT22;8501;49.926;8.404;2023-10-19T13:20:46;16.00;99.90
16767;DHT22;8501;49.926;8.404;2023-10-19T13:23:14;16.00;99.90
16767;DHT22;8501;49.926;8.404;2023-10-19T13:25:47;16.00;99.90
16767;DHT22;8501;49.926;8.404;2023-10-19T13:28:16;16.00;99.90
16767;DHT22;8501;49.926;8.404;2023-10-19T13:33:17;16.00;99.90
16767;DHT22;8501;49.926;8.404;2023-10-19T13:35:44;16.00;99.90
16767;DHT22;8501;49.926;8.404;2023-10-19T13:38:11;16.00;99.90
16767;DHT22;8501;49.926;8.404;2023-10-19T13:40:38;16.00;99.90
16767;DHT22;8501;49.926;8.404;2023-10-19T13:43:05;16.00;99.90
16767;DHT22;8501;49.926;8.404;2023-10-19T13:45:35;16.00;99.90
16767;DHT22;8501;49.926;8.404;2023-10-19T13:48:07;16.00;99.90
16767;DHT22;8501;49.926;8.404;2023-10-19T13:50:34;16.00;99.90
16767;DHT22;8501;49.926;8.404;2023-10-19T13:53:00;16.00;99.90
16767;DHT22;8501;49.926;8.404;2023-10-19T13:55:27;15.90;99.90
16767;DHT22;8501;49.926;8.404;2023-10-19T13:57:54;15.90;99.90
16767;DHT22;8501;49.926;8.404;2023-10-19T14:00:22;16.00;99.90
16767;DHT22;8501;49.926;8.404;2023-10-19T14:02:58;15.90;99.90
16767;DHT22;8501;49.926;8.404;2023-10-19T14:05:26;15.90;99.90
16767;DHT22;8501;49.926;8.404;2023-10-19T14:07:52;15.90;99.90
16767;DHT22;8501;49.926;8.404;2023-10-19T14:10:18;15.90;99.90
16767;DHT22;8501;49.926;8.404;2023-10-19T14:12:48;15.90;99.90
16767;DHT22;8501;49.926;8.404;2023-10-19T14:15:18;15.90;99.90
16767;DHT22;8501;49.926;8.404;2023-10-19T14:17:46;15.80;99.90
16767;DHT22;8501;49.926;8.404;2023-10-19T14:20:14;15.90;99.90
16767;DHT22;8501;49.926;8.404;2023-10-19T14:22:44;15.90;99.90
16767;DHT22;8501;49.926;8.404;2023-10-19T14:25:11;15.90;99.90
16767;DHT22;8501;49.926;8.404;2023-10-19T14:27:44;15.80;99.90
16767;DHT22;8501;49.926;8.404;2023-10-19T14:30:12;15.80;99.90
16767;DHT22;8501;49.926;8.404;2023-10-19T14:32:42;15.80;99.90
16767;DHT22;8501;49.926;8.404;2023-10-19T14:35:09;15.80;99.90
16767;DHT22;8501;49.926;8.404;2023-10-19T14:37:40;15.80;99.90
16767;DHT22;8501;49.926;8.404;2023-10-19T14:40:11;15.80;99.90
16767;DHT22;8501;49.926;8.404;2023-10-19T14:42:38;15.80;99.90
16767;DHT22;8501;49.926;8.404;2023-10-19T14:45:15;15.80;99.90
16767;DHT22;8501;49.926;8.404;2023-10-19T14:47:46;15.80;99.90
16767;DHT22;8501;49.926;8.404;2023-10-19T14:50:12;15.80;99.90
16767;DHT22;8501;49.926;8.404;2023-10-19T14:52:44;15.80;99.90
16767;DHT22;8501;49.926;8.404;2023-10-19T14:55:10;15.80;99.90
16767;DHT22;8501;49.926;8.404;2023-10-19T14:57:39;15.80;99.90
16767;DHT22;8501;49.926;8.404;2023-10-19T15:00:06;15.80;99.90
16767;DHT22;8501;49.926;8.404;2023-10-19T15:02:54;15.80;99.90
16767;DHT22;8501;49.926;8.404;2023-10-19T15:05:27;15.80;99.90
16767;DHT22;8501;49.926;8.404;2023-10-19T15:07:53;15.70;99.90
16767;DHT22;8501;49.926;8.404;2023-10-19T15:10:24;15.80;99.90
16767;DHT22;8501;49.926;8.404;2023-10-19T15:12:51;15.80;99.90
16767;DHT22;8501;49.926;8.404;2023-10-19T15:15:17;15.80;99.90
16767;DHT22;8501;49.926;8.404;2023-10-19T15:17:46;15.80;99.90
16767;DHT22;8501;49.926;8.404;2023-10-19T15:20:13;15.80;99.90
16767;DHT22;8501;49.926;8.404;2023-10-19T15:22:44;15.80;99.90
16767;DHT22;8501;49.926;8.404;2023-10-19T15:25:10;15.80;99.90
16767;DHT22;8501;49.926;8.404;2023-10-19T15:27:39;15.80;99.90
16767;DHT22;8501;49.926;8.404;2023-10-19T15:30:05;15.80;99.90
16767;DHT22;8501;49.926;8.404;2023-10-19T15:32:32;15.80;99.90
16767;DHT22;8501;49.926;8.404;2023-10-19T15:34:57;15.90;99.90
16767;DHT22;8501;49.926;8.404;2023-10-19T15:37:23;15.90;99.90
16767;DHT22;8501;49.926;8.404;2023-10-19T15:39:49;15.90;99.90
16767;DHT22;8501;49.926;8.404;2023-10-19T15:42:16;15.90;99.90
16767;DHT22;8501;49.926;8.404;2023-10-19T15:44:43;16.00;99.90
16767;DHT22;8501;49.926;8.404;2023-10-19T15:47:09;16.00;99.90
16767;DHT22;8501;49.926;8.404;2023-10-19T15:49:51;16.00;99.90
16767;DHT22;8501;49.926;8.404;2023-10-19T15:52:19;16.00;99.90
16767;DHT22;8501;49.926;8.404;2023-10-19T15:54:49;16.00;99.90
16767;DHT22;8501;49.926;8.404;2023-10-19T15:57:16;16.00;99.90
16767;DHT22;8501;49.926;8.404;2023-10-19T15:59:42;16.00;99.90
16767;DHT22;8501;49.926;8.404;2023-10-19T16:02:11;16.00;99.90
16767;DHT22;8501;49.926;8.404;2023-10-19T16:04:37;15.90;99.90
16767;DHT22;8501;49.926;8.404;2023-10-19T16:07:03;15.90;99.90
16767;DHT22;8501;49.926;8.404;2023-10-19T16:09:30;15.90;99.90
16767;DHT22;8501;49.926;8.404;2023-10-19T16:11:56;15.90;99.90
16767;DHT22;8501;49.926;8.404;2023-10-19T16:14:21;15.90;99.90